Britney Lee — WDC2895 — position and weather

sailwx.info

Track history (hours):
 
Tides and Currents Weather Stations Pressure Air Temp Water Temp Dewpoint Dewpoint Depression Visibility Wind Speed Wind Dir Waves Ship Positions

Britney Lee

Owner: Western Rivers Boat Management, Inc., Paducah, KY. More information available from US FCC via Universal Licensing System and Coast Guard Vessel Documentation Center.

Last reported at 2016-May-23 20:15 UTC. Time now 2016-May-27 04:38 UTC.
Position N 32°38' W 091°09'.

Length 44 m; draft 3 m.

Type: Tow > 200 m length. MMSI: 367129650.

Date/timePositionNaut miles runAvg speedWind from/ knotsBaromVisibWave heightAir tempDewpointWater temp
2016-May-23 20:15N 32°38' W 091°09'3 4.3
2016-May-23 19:33N 32°35' W 091°08'4 3.5
2016-May-23 18:33N 32°32' W 091°06'4 4.3
2016-May-23 17:34N 32°28' W 091°06'4 3.6
2016-May-23 16:34N 32°26' W 091°02'4 3.6
2016-May-23 15:33N 32°23' W 090°60'3 3.1
2016-May-23 14:34N 32°21' W 090°57'0 0.1
2016-May-23 13:34N 32°21' W 090°57'0 0.0
2016-May-23 12:33N 32°21' W 090°57'0 0.0
2016-May-23 11:34N 32°21' W 090°57'0 0.0
2016-May-23 10:34N 32°21' W 090°57'1 1.0
2016-May-23 09:34N 32°21' W 090°56'3 2.9
2016-May-23 08:34N 32°18' W 090°56'4 3.9
2016-May-23 07:33N 32°15' W 090°59'4 3.9
2016-May-23 06:34N 32°11' W 090°60'4 3.7
2016-May-23 05:34N 32°08' W 091°01'4 4.3
2016-May-23 04:33N 32°08' W 091°06'4 4.1
2016-May-23 03:31N 32°04' W 091°04'  
2016-May-19 04:23N 29°56' W 090°13'2 2.6
2016-May-19 03:33N 29°57' W 090°10'3 3.5
2016-May-19 02:34N 29°55' W 090°07'5 4.7
2016-May-19 01:34N 29°57' W 090°03'5 5.1
2016-May-19 00:33N 29°55' W 089°57'3 3.3
2016-May-18 23:34N 29°52' W 089°56'5 4.6
2016-May-18 22:34N 29°49' W 089°60'5 0.6
2016-May-18 14:32N 29°44' W 089°60'6 6.2
2016-May-18 13:33N 29°50' W 089°59'5 5.2
2016-May-18 12:32N 29°53' W 089°54'7 7.0
2016-May-18 11:34N 29°57' W 090°01'6 5.7
2016-May-18 10:34N 29°55' W 090°07'5 4.7
2016-May-18 09:26N 29°56' W 090°13'129 3.0
2016-May-16 14:28N 31°51' W 091°19'8 6.4
2016-May-16 13:10N 31°56' W 091°12'5 6.4
2016-May-16 12:21N 31°59' W 091°06'6 7.0
2016-May-16 11:33N 32°04' W 091°04'3 3.3
2016-May-16 10:33N 32°08' W 091°04'6 6.1
2016-May-16 09:34N 32°12' W 090°59'7 7.3
2016-May-16 08:34N 32°19' W 090°55'6 6.0
2016-May-16 07:33N 32°22' W 091°00'6 6.3
2016-May-16 06:33N 32°27' W 091°05'7 7.1
2016-May-16 05:33N 32°34' W 091°06'  
Track history (hours):
 
Tides and Currents Weather Stations Pressure Air Temp Water Temp Dewpoint Dewpoint Depression Visibility Wind Speed Wind Dir Waves Ship Positions

Britney Lee

Owner: Western Rivers Boat Management, Inc., Paducah, KY. More information available from US FCC via Universal Licensing System and Coast Guard Vessel Documentation Center.

Last reported at 2016-May-23 20:15 UTC. Time now 2016-May-27 04:38 UTC.
Position N 32°38' W 091°09'.

Length 44 m; draft 3 m.

Type: Tow > 200 m length. MMSI: 367129650.

Date/timePositionNaut miles runAvg speedWind from/ knotsBaromVisibWave heightAir tempDewpointWater temp
2016-May-23 20:15N 32°38' W 091°09'3 4.3
2016-May-23 19:33N 32°35' W 091°08'4 3.5
2016-May-23 18:33N 32°32' W 091°06'4 4.3
2016-May-23 17:34N 32°28' W 091°06'4 3.6
2016-May-23 16:34N 32°26' W 091°02'4 3.6
2016-May-23 15:33N 32°23' W 090°60'3 3.1
2016-May-23 14:34N 32°21' W 090°57'0 0.1
2016-May-23 13:34N 32°21' W 090°57'0 0.0
2016-May-23 12:33N 32°21' W 090°57'0 0.0
2016-May-23 11:34N 32°21' W 090°57'0 0.0
2016-May-23 10:34N 32°21' W 090°57'1 1.0
2016-May-23 09:34N 32°21' W 090°56'3 2.9
2016-May-23 08:34N 32°18' W 090°56'4 3.9
2016-May-23 07:33N 32°15' W 090°59'4 3.9
2016-May-23 06:34N 32°11' W 090°60'4 3.7
2016-May-23 05:34N 32°08' W 091°01'4 4.3
2016-May-23 04:33N 32°08' W 091°06'4 4.1
2016-May-23 03:31N 32°04' W 091°04'  
2016-May-19 04:23N 29°56' W 090°13'2 2.6
2016-May-19 03:33N 29°57' W 090°10'3 3.5
2016-May-19 02:34N 29°55' W 090°07'5 4.7
2016-May-19 01:34N 29°57' W 090°03'5 5.1
2016-May-19 00:33N 29°55' W 089°57'3 3.3
2016-May-18 23:34N 29°52' W 089°56'5 4.6
2016-May-18 22:34N 29°49' W 089°60'5 0.6
2016-May-18 14:32N 29°44' W 089°60'6 6.2
2016-May-18 13:33N 29°50' W 089°59'5 5.2
2016-May-18 12:32N 29°53' W 089°54'7 7.0
2016-May-18 11:34N 29°57' W 090°01'6 5.7
2016-May-18 10:34N 29°55' W 090°07'5 4.7
2016-May-18 09:26N 29°56' W 090°13'129 3.0
2016-May-16 14:28N 31°51' W 091°19'8 6.4
2016-May-16 13:10N 31°56' W 091°12'5 6.4
2016-May-16 12:21N 31°59' W 091°06'6 7.0
2016-May-16 11:33N 32°04' W 091°04'3 3.3
2016-May-16 10:33N 32°08' W 091°04'6 6.1
2016-May-16 09:34N 32°12' W 090°59'7 7.3
2016-May-16 08:34N 32°19' W 090°55'6 6.0
2016-May-16 07:33N 32°22' W 091°00'6 6.3
2016-May-16 06:33N 32°27' W 091°05'7 7.1
2016-May-16 05:33N 32°34' W 091°06'  

Dump ship's entire track history